Time;durP1;ratioP1;P1;durP2;ratioP2;P2;SDS_P1;SDS_P2;PMS_P1;PMS_P2;Temp;Humidity;BMP_temperature;BMP_pressure;BME280_temperature;BME280_humidity;BME280_pressure;Samples;Min_cycle;Max_cycle;Signal;HPM_P1;HPM_P2
2024/01/04 00:00:30;;;;;;;18.92;4.63;;;;;;;-148.15;100.00;61821.78;5053158;28;20036;-92
2024/01/04 00:02:56;;;;;;;23.00;4.30;;;;;;;-148.15;100.00;61821.78;5052199;28;20033;-93
2024/01/04 00:05:22;;;;;;;19.20;4.37;;;;;;;-148.15;100.00;61821.78;5052448;28;20040;-93
2024/01/04 00:07:48;;;;;;;17.17;4.80;;;;;;;-148.15;100.00;61821.78;5053811;28;20025;-93
2024/01/04 00:10:14;;;;;;;24.17;5.47;;;;;;;-148.15;100.00;61821.78;5051875;28;20036;-94
2024/01/04 00:12:40;;;;;;;17.27;4.57;;;;;;;-148.15;100.00;61821.78;5035794;28;20033;-93
2024/01/04 00:15:06;;;;;;;20.80;4.53;;;;;;;-148.15;100.00;61821.78;5052270;28;20174;-93
2024/01/04 00:17:31;;;;;;;15.80;4.30;;;;;;;-148.15;100.00;61821.78;5053172;28;20036;-93
2024/01/04 00:19:57;;;;;;;20.00;4.60;;;;;;;-148.15;100.00;61821.78;5052423;28;20029;-94
2024/01/04 00:22:22;;;;;;;23.23;4.87;;;;;;;-148.15;100.00;61821.78;5051644;28;20111;-93
2024/01/04 00:24:49;;;;;;;16.03;4.03;;;;;;;-148.15;100.00;61821.78;5052213;28;20029;-94
2024/01/04 00:27:14;;;;;;;17.38;4.68;;;;;;;-148.15;100.00;61821.78;5053693;28;20099;-94
2024/01/04 00:29:40;;;;;;;13.03;4.03;;;;;;;-148.15;100.00;61821.78;5051654;28;20436;-92
2024/01/04 00:32:06;;;;;;;17.05;4.32;;;;;;;-148.15;100.00;61821.78;5051217;28;20117;-93
2024/01/04 00:34:32;;;;;;;13.75;4.22;;;;;;;-148.15;100.00;61821.78;5051937;28;20052;-93
2024/01/04 00:36:58;;;;;;;13.47;3.53;;;;;;;-148.15;100.00;61821.78;5051951;28;20026;-93
2024/01/04 00:39:24;;;;;;;10.98;3.92;;;;;;;-148.15;100.00;61821.78;5051562;28;20083;-92
2024/01/04 00:41:51;;;;;;;11.20;3.33;;;;;;;-148.15;100.00;61821.78;5052370;28;20029;-93
2024/01/04 00:44:17;;;;;;;10.48;3.00;;;;;;;-148.15;100.00;61821.78;5051610;28;20021;-93
2024/01/04 00:46:42;;;;;;;16.30;2.53;;;;;;;-148.15;100.00;61821.78;5052718;28;20039;-94
2024/01/04 00:49:08;;;;;;;11.27;2.17;;;;;;;-148.15;100.00;61821.78;5052261;28;20503;-94
2024/01/04 00:51:33;;;;;;;12.50;2.50;;;;;;;-148.15;100.00;61821.78;5061045;28;20084;-93
2024/01/04 00:53:58;;;;;;;11.73;3.03;;;;;;;-148.15;100.00;61821.78;5063934;28;20025;-91
2024/01/04 00:56:24;;;;;;;11.65;2.72;;;;;;;-148.15;100.00;61821.78;5052034;28;20499;-93
2024/01/04 00:58:49;;;;;;;11.83;2.37;;;;;;;-148.15;100.00;61821.78;5053088;28;20029;-93
2024/01/04 01:01:14;;;;;;;7.37;2.73;;;;;;;-148.15;100.00;61821.78;5052922;28;20021;-93
2024/01/04 01:03:40;;;;;;;9.40;2.67;;;;;;;-148.15;100.00;61821.78;5053380;28;20112;-93
2024/01/04 01:06:10;;;;;;;18.30;3.03;;;;;;;-148.15;100.00;61821.78;5051813;28;20064;-93
2024/01/04 01:08:36;;;;;;;11.68;2.42;;;;;;;-148.15;100.00;61821.78;5051779;28;20078;-92
2024/01/04 01:11:01;;;;;;;11.70;2.90;;;;;;;-148.15;100.00;61821.78;5052144;28;20469;-93
2024/01/04 01:13:26;;;;;;;11.93;2.27;;;;;;;-148.15;100.00;61821.78;5052318;28;20515;-93
2024/01/04 01:15:54;;;;;;;11.00;2.17;;;;;;;-148.15;100.00;61821.78;5051670;28;20033;-92
2024/01/04 01:18:19;;;;;;;11.93;2.57;;;;;;;-148.15;100.00;61821.78;5043530;28;20025;-93
2024/01/04 01:20:44;;;;;;;10.55;2.30;;;;;;;-148.15;100.00;61821.78;5031410;28;20025;-93
2024/01/04 01:23:10;;;;;;;8.93;2.53;;;;;;;-148.15;100.00;61821.78;5032056;28;20017;-92
2024/01/04 01:25:35;;;;;;;6.27;2.30;;;;;;;-148.15;100.00;61821.78;5037990;28;20677;-93
2024/01/04 01:28:00;;;;;;;8.97;2.60;;;;;;;-148.15;100.00;61821.78;5050897;28;20033;-93
2024/01/04 01:30:29;;;;;;;11.57;2.60;;;;;;;-148.15;100.00;61821.78;5050080;28;20118;-93
2024/01/04 01:32:54;;;;;;;10.63;2.80;;;;;;;-148.15;100.00;61821.78;5049193;28;20082;-91
2024/01/04 01:35:19;;;;;;;11.27;3.00;;;;;;;-148.15;100.00;61821.78;5051256;28;20044;-93
2024/01/04 01:37:45;;;;;;;10.50;3.10;;;;;;;-148.15;100.00;61821.78;5050110;28;20123;-92
2024/01/04 01:40:10;;;;;;;9.10;3.23;;;;;;;-148.15;100.00;61821.78;5051109;28;20283;-93
2024/01/04 01:42:36;;;;;;;11.40;3.00;;;;;;;-148.15;100.00;61821.78;5050049;28;20036;-91
2024/01/04 01:45:01;;;;;;;16.40;3.57;;;;;;;-148.15;100.00;61821.78;5051353;28;20029;-93
2024/01/04 01:47:28;;;;;;;13.02;3.63;;;;;;;-148.15;100.00;61821.78;5050542;28;20162;-94
2024/01/04 01:49:54;;;;;;;18.90;3.70;;;;;;;-148.15;100.00;61821.78;5050207;28;20519;-91
2024/01/04 01:52:21;;;;;;;13.87;2.93;;;;;;;-148.15;100.00;61821.78;5050994;28;20275;-92
2024/01/04 01:54:47;;;;;;;19.70;3.42;;;;;;;-148.15;100.00;61821.78;5050468;28;20021;-91
2024/01/04 01:57:13;;;;;;;9.88;2.60;;;;;;;-148.15;100.00;61821.78;5049838;28;20096;-91
2024/01/04 01:59:39;;;;;;;22.05;3.80;;;;;;;-148.15;100.00;61821.78;5051084;28;20620;-92
2024/01/04 02:02:05;;;;;;;14.67;2.97;;;;;;;-148.15;100.00;61821.78;5048305;28;20125;-92
2024/01/04 02:04:31;;;;;;;13.68;3.00;;;;;;;-148.15;100.00;61821.78;5050461;28;20032;-93
2024/01/04 02:06:56;;;;;;;15.35;3.15;;;;;;;-148.15;100.00;61821.78;5050590;28;20036;-91
2024/01/04 02:09:22;;;;;;;13.43;2.73;;;;;;;-148.15;100.00;61821.78;5050194;28;20442;-92
2024/01/04 02:11:47;;;;;;;16.57;3.30;;;;;;;-148.15;100.00;61821.78;5049678;28;20054;-92
2024/01/04 02:14:12;;;;;;;22.63;2.90;;;;;;;-148.15;100.00;61821.78;5050851;28;20025;-92
2024/01/04 02:16:38;;;;;;;15.17;3.00;;;;;;;-148.15;100.00;61821.78;5049787;28;20033;-92
2024/01/04 02:19:07;;;;;;;14.48;2.70;;;;;;;-148.15;100.00;61821.78;5047665;28;20036;-91
2024/01/04 02:21:36;;;;;;;9.73;2.70;;;;;;;-148.15;100.00;61821.78;5050224;28;20029;-92
2024/01/04 02:24:01;;;;;;;11.48;2.60;;;;;;;-148.15;100.00;61821.78;5048824;28;20392;-92
2024/01/04 02:26:27;;;;;;;10.37;2.67;;;;;;;-148.15;100.00;61821.78;5050826;28;20032;-91
2024/01/04 02:28:52;;;;;;;15.60;2.90;;;;;;;-148.15;100.00;61821.78;5050200;28;20021;-91
2024/01/04 02:31:17;;;;;;;12.23;2.67;;;;;;;-148.15;100.00;61821.78;5049832;28;20032;-93
2024/01/04 02:33:43;;;;;;;12.37;2.77;;;;;;;-148.15;100.00;61821.78;5047708;28;20029;-91
2024/01/04 02:36:08;;;;;;;16.17;2.90;;;;;;;-148.15;100.00;61821.78;5050552;28;20029;-91
2024/01/04 02:38:33;;;;;;;19.80;3.30;;;;;;;-148.15;100.00;61821.78;5051036;28;20472;-92
2024/01/04 02:40:59;;;;;;;17.67;3.67;;;;;;;-148.15;100.00;61821.78;5051888;28;20677;-92
2024/01/04 02:43:24;;;;;;;12.77;3.38;;;;;;;-148.15;100.00;61821.78;5052630;28;20115;-92
2024/01/04 02:45:49;;;;;;;20.73;3.37;;;;;;;-148.15;100.00;61821.78;5051407;28;20489;-92
2024/01/04 02:48:20;;;;;;;12.20;3.63;;;;;;;-148.15;100.00;61821.78;5037659;28;20033;-92
2024/01/04 02:50:45;;;;;;;21.55;3.78;;;;;;;-148.15;100.00;61821.78;5060804;28;20052;-92
2024/01/04 02:53:10;;;;;;;10.63;3.00;;;;;;;-148.15;100.00;61821.78;5069123;28;20024;-93
2024/01/04 02:55:36;;;;;;;13.10;4.17;;;;;;;-148.15;100.00;61821.78;5052527;28;20029;-93
2024/01/04 02:58:01;;;;;;;16.17;3.60;;;;;;;-148.15;100.00;61821.78;5048226;28;20037;-91
2024/01/04 03:00:27;;;;;;;16.53;3.70;;;;;;;-148.15;100.00;61821.78;5036849;28;20025;-92
2024/01/04 03:02:52;;;;;;;10.70;3.57;;;;;;;-148.15;100.00;61821.78;5051514;28;20520;-92
2024/01/04 03:05:18;;;;;;;13.03;3.70;;;;;;;-148.15;100.00;61821.78;5052309;28;20291;-92
2024/01/04 03:07:44;;;;;;;18.77;3.58;;;;;;;-148.15;100.00;61821.78;5053147;28;20077;-91
2024/01/04 03:10:10;;;;;;;13.85;3.15;;;;;;;-148.15;100.00;61821.78;5052401;28;20033;-91
2024/01/04 03:12:37;;;;;;;12.87;3.47;;;;;;;-148.15;100.00;61821.78;5053286;28;20033;-92
2024/01/04 03:15:03;;;;;;;14.95;3.00;;;;;;;-148.15;100.00;61821.78;5052622;28;20480;-91
2024/01/04 03:17:28;;;;;;;11.03;3.43;;;;;;;-148.15;100.00;61821.78;5054125;28;20021;-92
2024/01/04 03:19:53;;;;;;;9.10;3.07;;;;;;;-148.15;100.00;61821.78;5050938;28;20511;-91
2024/01/04 03:22:19;;;;;;;10.33;2.80;;;;;;;-148.15;100.00;61821.78;5039148;28;20124;-92
2024/01/04 03:24:44;;;;;;;10.27;2.53;;;;;;;-148.15;100.00;61821.78;5033137;28;20029;-91
2024/01/04 03:27:12;;;;;;;11.80;3.00;;;;;;;-148.15;100.00;61821.78;5040894;28;20537;-92
2024/01/04 03:29:37;;;;;;;8.35;2.80;;;;;;;-148.15;100.00;61821.78;5052036;28;20108;-92
2024/01/04 03:32:04;;;;;;;11.00;2.63;;;;;;;-148.15;100.00;61821.78;5053894;28;20515;-91
2024/01/04 03:34:30;;;;;;;10.87;2.30;;;;;;;-148.15;100.00;61821.78;5053574;28;20033;-92
2024/01/04 03:36:55;;;;;;;7.47;3.03;;;;;;;-148.15;100.00;61821.78;5053177;28;21023;-91
2024/01/04 03:39:20;;;;;;;7.23;2.20;;;;;;;-148.15;100.00;61821.78;5054670;28;20437;-90
2024/01/04 03:41:46;;;;;;;6.77;2.50;;;;;;;-148.15;100.00;61821.78;5060274;28;20055;-90
2024/01/04 03:44:11;;;;;;;7.43;2.50;;;;;;;-148.15;100.00;61821.78;5064775;28;21323;-92
2024/01/04 03:46:36;;;;;;;9.53;2.97;;;;;;;-148.15;100.00;61821.78;5064695;28;20114;-91
2024/01/04 03:49:02;;;;;;;7.85;2.60;;;;;;;-148.15;100.00;61821.78;5063716;28;20035;-92
2024/01/04 03:51:27;;;;;;;6.37;2.10;;;;;;;-148.15;100.00;61821.78;5064504;28;20107;-93
2024/01/04 03:53:52;;;;;;;7.90;2.40;;;;;;;-148.15;100.00;61821.78;5064623;28;20032;-91
2024/01/04 03:56:18;;;;;;;11.20;2.80;;;;;;;-148.15;100.00;61821.78;5067013;28;20052;-93
2024/01/04 03:58:43;;;;;;;6.23;2.60;;;;;;;-148.15;100.00;61821.78;5063718;28;20560;-93
2024/01/04 04:01:08;;;;;;;11.23;3.25;;;;;;;-148.15;100.00;61821.78;5063896;28;20025;-92
2024/01/04 04:03:34;;;;;;;11.23;3.07;;;;;;;-148.15;100.00;61821.78;5070418;28;20033;-93
2024/01/04 04:06:05;;;;;;;9.73;3.50;;;;;;;-148.15;100.00;61821.78;5059429;28;20029;-93
2024/01/04 04:08:30;;;;;;;9.60;3.70;;;;;;;-148.15;100.00;61821.78;5065913;28;20032;-93
2024/01/04 04:10:55;;;;;;;12.03;3.80;;;;;;;-148.15;100.00;61821.78;5067308;28;20352;-93
2024/01/04 04:13:21;;;;;;;10.77;4.00;;;;;;;-148.15;100.00;61821.78;5061085;28;20175;-93
2024/01/04 04:15:46;;;;;;;16.90;4.53;;;;;;;-148.15;100.00;61821.78;5066624;28;20025;-93
2024/01/04 04:18:12;;;;;;;9.57;4.50;;;;;;;-148.15;100.00;61821.78;5066951;28;20025;-91
2024/01/04 04:20:37;;;;;;;16.30;5.50;;;;;;;-148.15;100.00;61821.78;5062260;28;20082;-95
2024/01/04 04:23:02;;;;;;;14.40;5.00;;;;;;;-148.15;100.00;61821.78;5052021;28;20036;-92
2024/01/04 04:25:28;;;;;;;21.47;5.37;;;;;;;-148.15;100.00;61821.78;5059924;28;20036;-92
2024/01/04 04:27:54;;;;;;;18.03;5.80;;;;;;;-148.15;100.00;61821.78;5051820;28;20032;-92
2024/01/04 04:30:19;;;;;;;16.65;5.40;;;;;;;-148.15;100.00;61821.78;5053826;28;20033;-94
2024/01/04 04:32:46;;;;;;;19.23;6.30;;;;;;;-148.15;100.00;61821.78;5056741;28;20086;-93
2024/01/04 04:35:12;;;;;;;20.10;6.30;;;;;;;-148.15;100.00;61821.78;5056445;28;20017;-93
2024/01/04 04:37:37;;;;;;;19.50;6.40;;;;;;;-148.15;100.00;61821.78;5054782;28;20021;-92
2024/01/04 04:40:03;;;;;;;24.67;7.47;;;;;;;-148.15;100.00;61821.78;5055280;28;20373;-94
2024/01/04 04:42:28;;;;;;;21.07;6.60;;;;;;;-148.15;100.00;61821.78;5058885;28;20029;-93
2024/01/04 04:44:54;;;;;;;17.95;7.10;;;;;;;-148.15;100.00;61821.78;5055559;28;20031;-94
2024/01/04 04:47:19;;;;;;;22.03;7.27;;;;;;;-148.15;100.00;61821.78;5054361;28;20047;-95
2024/01/04 04:49:44;;;;;;;22.17;6.77;;;;;;;-148.15;100.00;61821.78;5053852;28;20021;-91
2024/01/04 04:52:10;;;;;;;22.07;7.43;;;;;;;-148.15;100.00;61821.78;5076203;28;20021;-94
2024/01/04 04:54:35;;;;;;;15.37;7.50;;;;;;;-148.15;100.00;61821.78;5056862;28;20104;-95
2024/01/04 04:57:02;;;;;;;20.00;7.20;;;;;;;-148.15;100.00;61821.78;5055488;28;20028;-95
2024/01/04 04:59:28;;;;;;;14.25;6.10;;;;;;;-148.15;100.00;61821.78;5059505;28;20092;-94
2024/01/04 05:01:53;;;;;;;18.50;6.13;;;;;;;-148.15;100.00;61821.78;5103411;28;20009;-93
2024/01/04 05:04:18;;;;;;;15.10;5.50;;;;;;;-148.15;100.00;61821.78;5090927;28;20044;-93
2024/01/04 05:06:45;;;;;;;16.57;5.63;;;;;;;-148.15;100.00;61821.78;5092678;28;20350;-95
2024/01/04 05:09:10;;;;;;;15.63;5.60;;;;;;;-148.15;100.00;61821.78;5078338;28;20028;-94
2024/01/04 05:11:35;;;;;;;15.73;5.63;;;;;;;-148.15;100.00;61821.78;5077332;28;20040;-94
2024/01/04 05:14:02;;;;;;;14.03;5.37;;;;;;;-148.15;100.00;61821.78;5072715;28;20035;-94
2024/01/04 05:16:28;;;;;;;15.60;5.93;;;;;;;-148.15;100.00;61821.78;5074717;28;20036;-94
2024/01/04 05:18:53;;;;;;;20.67;6.30;;;;;;;-148.15;100.00;61821.78;5075025;28;20037;-93
2024/01/04 05:21:19;;;;;;;21.27;6.53;;;;;;;-148.15;100.00;61821.78;5073365;28;20017;-94
2024/01/04 05:23:44;;;;;;;15.87;6.93;;;;;;;-148.15;100.00;61821.78;5073038;28;20088;-94
2024/01/04 05:26:19;;;;;;;22.97;7.47;;;;;;;-148.15;100.00;61821.78;5073166;28;20001;-93
2024/01/04 05:28:44;;;;;;;17.88;7.70;;;;;;;-148.15;100.00;61821.78;5059770;28;20025;-94
2024/01/04 05:31:09;;;;;;;23.37;7.93;;;;;;;-148.15;100.00;61821.78;5052350;28;20101;-94
2024/01/04 05:33:35;;;;;;;28.37;8.30;;;;;;;-148.15;100.00;61821.78;5073482;28;20035;-93
2024/01/04 05:36:00;;;;;;;17.07;7.50;;;;;;;-148.15;100.00;61821.78;5069274;28;20093;-92
2024/01/04 05:38:25;;;;;;;20.80;8.48;;;;;;;-148.15;100.00;61821.78;5068409;28;20032;-93
2024/01/04 05:40:51;;;;;;;23.03;7.60;;;;;;;-148.15;100.00;61821.78;5074187;28;20017;-93
2024/01/04 05:43:16;;;;;;;21.20;7.97;;;;;;;-148.15;100.00;61821.78;5069567;28;20021;-94
2024/01/04 05:45:41;;;;;;;21.40;7.70;;;;;;;-148.15;100.00;61821.78;5067843;28;20334;-93
2024/01/04 05:48:07;;;;;;;18.90;8.37;;;;;;;-148.15;100.00;61821.78;5096630;28;20060;-93
2024/01/04 05:50:32;;;;;;;17.90;6.70;;;;;;;-148.15;100.00;61821.78;5054288;28;20283;-94
2024/01/04 05:52:58;;;;;;;13.00;6.30;;;;;;;-148.15;100.00;61821.78;5058930;28;20032;-94
2024/01/04 05:55:27;;;;;;;20.23;6.37;;;;;;;-148.15;100.00;61821.78;5054547;28;20045;-93
2024/01/04 05:57:52;;;;;;;15.02;5.15;;;;;;;-148.15;100.00;61821.78;5050785;28;20013;-93
2024/01/04 06:00:17;;;;;;;12.60;5.63;;;;;;;-148.15;100.00;61821.78;5052462;28;20478;-94
2024/01/04 06:02:43;;;;;;;10.80;4.53;;;;;;;-148.15;100.00;61821.78;5052198;28;20108;-92
2024/01/04 06:05:08;;;;;;;10.07;4.07;;;;;;;-148.15;100.00;61821.78;5051590;28;20431;-94
2024/01/04 06:07:34;;;;;;;10.67;3.90;;;;;;;-148.15;100.00;61821.78;5050331;28;20484;-94
2024/01/04 06:09:59;;;;;;;8.23;3.13;;;;;;;-148.15;100.00;61821.78;5050930;28;20025;-94
2024/01/04 06:12:24;;;;;;;6.43;3.20;;;;;;;-148.15;100.00;61821.78;5035684;28;20465;-94
2024/01/04 06:14:51;;;;;;;7.70;3.47;;;;;;;-148.15;100.00;61821.78;5030445;28;20153;-94
2024/01/04 06:17:16;;;;;;;10.00;3.63;;;;;;;-148.15;100.00;61821.78;5034842;28;20029;-94
2024/01/04 06:19:41;;;;;;;8.13;3.47;;;;;;;-148.15;100.00;61821.78;5041007;28;20033;-95
2024/01/04 06:22:10;;;;;;;10.63;3.55;;;;;;;-148.15;100.00;61821.78;5035752;28;20060;-95
2024/01/04 06:24:35;;;;;;;11.83;3.13;;;;;;;-148.15;100.00;61821.78;5036007;28;20045;-94
2024/01/04 06:27:01;;;;;;;9.57;3.50;;;;;;;-148.15;100.00;61821.78;5036948;28;20279;-95
2024/01/04 06:29:29;;;;;;;12.37;3.50;;;;;;;-148.15;100.00;61821.78;5055794;28;20029;-94
2024/01/04 06:31:55;;;;;;;9.48;3.45;;;;;;;-148.15;100.00;61821.78;5054082;28;20029;-95
2024/01/04 06:34:22;;;;;;;7.20;3.47;;;;;;;-148.15;100.00;61821.78;5043764;28;20558;-92
2024/01/04 06:36:48;;;;;;;12.95;3.90;;;;;;;-148.15;100.00;61821.78;5083794;28;20094;-89
2024/01/04 06:39:13;;;;;;;10.97;3.60;;;;;;;-148.15;100.00;61821.78;5052623;28;20061;-89
2024/01/04 06:41:43;;;;;;;8.95;3.67;;;;;;;-148.15;100.00;61821.78;5052215;28;20128;-88
2024/01/04 06:44:08;;;;;;;10.63;3.90;;;;;;;-148.15;100.00;61821.78;5052234;28;20117;-91
2024/01/04 06:46:34;;;;;;;14.13;3.80;;;;;;;-148.15;100.00;61821.78;5053778;28;20056;-87
2024/01/04 06:48:59;;;;;;;10.07;4.10;;;;;;;-148.15;100.00;61821.78;5062918;28;20059;-88
2024/01/04 06:51:25;;;;;;;10.97;4.30;;;;;;;-148.15;100.00;61821.78;5053434;28;20376;-86
2024/01/04 06:53:50;;;;;;;12.95;4.43;;;;;;;-148.15;100.00;61821.78;5049787;28;20147;-89
2024/01/04 06:56:18;;;;;;;11.83;4.97;;;;;;;-148.15;100.00;61821.78;5056040;28;20029;-88
2024/01/04 06:58:44;;;;;;;11.32;4.95;;;;;;;-148.15;100.00;61821.78;5052000;28;20120;-88
2024/01/04 07:01:10;;;;;;;6.40;4.22;;;;;;;-148.15;100.00;61821.78;5050865;28;20097;-89
2024/01/04 07:03:35;;;;;;;12.68;4.60;;;;;;;-148.15;100.00;61821.78;5051687;28;20065;-89
2024/01/04 07:06:00;;;;;;;15.63;5.30;;;;;;;-148.15;100.00;61821.78;5051694;28;20067;-87
2024/01/04 07:08:26;;;;;;;15.53;5.10;;;;;;;-148.15;100.00;61821.78;5052817;28;20428;-89
2024/01/04 07:10:51;;;;;;;16.00;4.83;;;;;;;-148.15;100.00;61821.78;5052426;28;20113;-89
2024/01/04 07:13:17;;;;;;;12.83;4.73;;;;;;;-148.15;100.00;61821.78;5060408;28;20472;-88
2024/01/04 07:15:42;;;;;;;14.90;5.20;;;;;;;-148.15;100.00;61821.78;5054985;28;20184;-90
2024/01/04 07:18:07;;;;;;;11.50;4.80;;;;;;;-148.15;100.00;61821.78;5042871;28;20021;-89
2024/01/04 07:20:33;;;;;;;12.83;4.73;;;;;;;-148.15;100.00;61821.78;5051660;28;20092;-88
2024/01/04 07:22:58;;;;;;;17.15;5.45;;;;;;;-148.15;100.00;61821.78;5052872;28;20028;-89
2024/01/04 07:25:24;;;;;;;18.30;5.90;;;;;;;-148.15;100.00;61821.78;5053337;28;20025;-89
2024/01/04 07:27:50;;;;;;;17.67;4.73;;;;;;;-148.15;100.00;61821.78;5037387;28;20028;-90
2024/01/04 07:30:16;;;;;;;13.98;4.85;;;;;;;-148.15;100.00;61821.78;5052060;28;20028;-90
2024/01/04 07:32:41;;;;;;;15.30;5.03;;;;;;;-148.15;100.00;61821.78;5051242;28;20385;-90
2024/01/04 07:35:08;;;;;;;18.10;4.90;;;;;;;-148.15;100.00;61821.78;5048962;28;20024;-88
2024/01/04 07:37:34;;;;;;;19.40;5.18;;;;;;;-148.15;100.00;61821.78;5048903;28;20362;-89
2024/01/04 07:39:59;;;;;;;14.37;4.77;;;;;;;-148.15;100.00;61821.78;5048614;28;20024;-87
2024/01/04 07:42:25;;;;;;;14.27;4.77;;;;;;;-148.15;100.00;61821.78;5046097;28;20511;-90
2024/01/04 07:44:50;;;;;;;17.80;4.95;;;;;;;-148.15;100.00;61821.78;5050241;28;20036;-89
2024/01/04 07:47:17;;;;;;;16.80;5.20;;;;;;;-148.15;100.00;61821.78;5048981;28;20013;-90
2024/01/04 07:49:42;;;;;;;19.15;6.05;;;;;;;-148.15;100.00;61821.78;5050809;28;20025;-89
2024/01/04 07:52:07;;;;;;;19.83;6.97;;;;;;;-148.15;100.00;61821.78;5048340;28;20074;-89
2024/01/04 07:54:33;;;;;;;16.07;6.63;;;;;;;-148.15;100.00;61821.78;5050914;28;20115;-88
2024/01/04 07:57:00;;;;;;;13.63;6.47;;;;;;;-148.15;100.00;61821.78;5050356;28;20029;-89
2024/01/04 07:59:26;;;;;;;22.55;6.60;;;;;;;-148.15;100.00;61821.78;5051804;28;20119;-88
2024/01/04 08:01:51;;;;;;;15.87;6.83;;;;;;;-148.15;100.00;61821.78;5049151;28;20100;-88
2024/01/04 08:04:16;;;;;;;24.33;7.70;;;;;;;-148.15;100.00;61821.78;5059923;28;20029;-88
2024/01/04 08:06:42;;;;;;;27.57;8.47;;;;;;;-148.15;100.00;61821.78;5051570;28;20100;-89
2024/01/04 08:09:08;;;;;;;19.05;8.07;;;;;;;-148.15;100.00;61821.78;5062747;28;20032;-88
2024/01/04 08:11:33;;;;;;;21.93;7.47;;;;;;;-148.15;100.00;61821.78;5062478;28;20017;-90
2024/01/04 08:13:59;;;;;;;21.27;7.47;;;;;;;-148.15;100.00;61821.78;5050059;28;20293;-89
2024/01/04 08:16:24;;;;;;;18.90;7.80;;;;;;;-148.15;100.00;61821.78;5051304;28;20065;-87
2024/01/04 08:18:50;;;;;;;26.03;8.80;;;;;;;-148.15;100.00;61821.78;5050985;28;20036;-88
2024/01/04 08:21:16;;;;;;;20.13;7.28;;;;;;;-148.15;100.00;61821.78;5050073;28;20052;-92
2024/01/04 08:23:43;;;;;;;23.65;7.05;;;;;;;-148.15;100.00;61821.78;5050738;28;20028;-91
2024/01/04 08:26:08;;;;;;;16.83;6.67;;;;;;;-148.15;100.00;61821.78;5052801;28;20031;-91
2024/01/04 08:28:36;;;;;;;16.13;6.10;;;;;;;-148.15;100.00;61821.78;5052197;28;20280;-90
2024/01/04 08:31:02;;;;;;;19.33;5.85;;;;;;;-148.15;100.00;61821.78;5050725;28;20480;-94
2024/01/04 08:33:27;;;;;;;16.93;6.50;;;;;;;-148.15;100.00;61821.78;5051542;28;20028;-91
2024/01/04 08:35:52;;;;;;;20.60;5.30;;;;;;;-148.15;100.00;61821.78;5046145;28;20029;-93
2024/01/04 08:38:18;;;;;;;15.33;4.67;;;;;;;-148.15;100.00;61821.78;5041627;28;20033;-89
2024/01/04 08:40:44;;;;;;;15.73;4.83;;;;;;;-148.15;100.00;61821.78;5055132;28;20025;-91
2024/01/04 08:43:09;;;;;;;9.40;4.15;;;;;;;-148.15;100.00;61821.78;5050934;28;20044;-93
2024/01/04 08:45:34;;;;;;;7.43;3.73;;;;;;;-148.15;100.00;61821.78;5056541;28;20017;-91
2024/01/04 08:48:00;;;;;;;10.52;3.35;;;;;;;-148.15;100.00;61821.78;5059115;28;20035;-92
2024/01/04 08:50:25;;;;;;;8.10;3.50;;;;;;;-148.15;100.00;61821.78;5049712;28;20505;-88
2024/01/04 08:52:51;;;;;;;7.73;3.07;;;;;;;-148.15;100.00;61821.78;5048899;28;20017;-90
2024/01/04 08:55:19;;;;;;;11.90;2.87;;;;;;;-148.15;100.00;61821.78;5048064;28;20079;-88
2024/01/04 08:57:44;;;;;;;6.57;2.78;;;;;;;-148.15;100.00;61821.78;5047774;28;20021;-87
2024/01/04 09:00:10;;;;;;;6.87;2.77;;;;;;;-148.15;100.00;61821.78;5049999;28;20128;-87
2024/01/04 09:02:36;;;;;;;10.65;3.10;;;;;;;-148.15;100.00;61821.78;5050040;28;20567;-90
2024/01/04 09:05:01;;;;;;;9.13;2.93;;;;;;;-148.15;100.00;61821.78;5050017;28;20060;-88
2024/01/04 09:07:27;;;;;;;9.10;3.13;;;;;;;-148.15;100.00;61821.78;5049700;28;20041;-88
2024/01/04 09:09:52;;;;;;;5.55;3.05;;;;;;;-148.15;100.00;61821.78;5047493;28;20029;-89
2024/01/04 09:12:17;;;;;;;7.43;2.70;;;;;;;-148.15;100.00;61821.78;5049860;28;20028;-88
2024/01/04 09:14:43;;;;;;;6.87;2.83;;;;;;;-148.15;100.00;61821.78;5050058;28;20021;-89
2024/01/04 09:17:08;;;;;;;5.80;2.67;;;;;;;-148.15;100.00;61821.78;5050096;28;20085;-89
2024/01/04 09:19:35;;;;;;;8.30;2.63;;;;;;;-148.15;100.00;61821.78;5050583;28;20481;-88
2024/01/04 09:22:00;;;;;;;6.17;2.63;;;;;;;-148.15;100.00;61821.78;5048991;28;20323;-89
2024/01/04 09:24:26;;;;;;;9.07;2.50;;;;;;;-148.15;100.00;61821.78;5048786;28;20657;-89
2024/01/04 09:26:51;;;;;;;12.07;2.60;;;;;;;-148.15;100.00;61821.78;5048250;28;20033;-88
2024/01/04 09:29:17;;;;;;;4.70;2.17;;;;;;;-148.15;100.00;61821.78;5048901;28;20357;-87
2024/01/04 09:31:42;;;;;;;8.83;2.33;;;;;;;-148.15;100.00;61821.78;5048997;28;20057;-87
2024/01/04 09:34:08;;;;;;;6.03;2.08;;;;;;;-148.15;100.00;61821.78;5049919;28;20086;-88
2024/01/04 09:36:33;;;;;;;7.97;1.93;;;;;;;-148.15;100.00;61821.78;5048840;28;20029;-88
2024/01/04 09:38:58;;;;;;;9.40;2.07;;;;;;;-148.15;100.00;61821.78;5049719;28;20020;-88
2024/01/04 09:41:30;;;;;;;4.17;2.20;;;;;;;-148.15;100.00;61821.78;5048506;28;20070;-89
2024/01/04 09:44:00;;;;;;;3.72;1.90;;;;;;;-148.15;100.00;61821.78;5049580;28;20025;-89
2024/01/04 09:46:28;;;;;;;5.50;1.90;;;;;;;-148.15;100.00;61821.78;5049641;28;20018;-88
2024/01/04 09:48:58;;;;;;;4.53;1.70;;;;;;;-148.15;100.00;61821.78;5047879;28;20017;-89
2024/01/04 09:51:29;;;;;;;5.32;2.05;;;;;;;-148.15;100.00;61821.78;5048266;28;20339;-88
2024/01/04 09:53:55;;;;;;;2.90;1.67;;;;;;;-148.15;100.00;61821.78;5049839;28;20679;-88
2024/01/04 09:56:25;;;;;;;4.80;1.80;;;;;;;-148.15;100.00;61821.78;5049565;28;20287;-89
2024/01/04 09:58:52;;;;;;;5.95;1.65;;;;;;;-148.15;100.00;61821.78;5048433;28;20545;-89
2024/01/04 10:01:24;;;;;;;7.18;1.70;;;;;;;-148.15;100.00;61821.78;5049473;28;20029;-88
2024/01/04 10:03:52;;;;;;;9.32;1.90;;;;;;;-148.15;100.00;61821.78;5048738;28;20029;-89
2024/01/04 10:06:24;;;;;;;3.80;1.48;;;;;;;-148.15;100.00;61821.78;5049281;28;20025;-89
2024/01/04 10:08:55;;;;;;;4.90;1.60;;;;;;;-148.15;100.00;61821.78;5048126;28;20029;-88
2024/01/04 10:11:28;;;;;;;3.47;1.33;;;;;;;-148.15;100.00;61821.78;5049097;28;20815;-89
2024/01/04 10:13:53;;;;;;;3.75;1.60;;;;;;;-148.15;100.00;61821.78;5047847;28;20432;-88
2024/01/04 10:16:19;;;;;;;3.35;1.60;;;;;;;-148.15;100.00;61821.78;5049702;28;20037;-88
2024/01/04 10:18:44;;;;;;;7.80;1.90;;;;;;;-148.15;100.00;61821.78;5047005;28;20499;-88
2024/01/04 10:21:10;;;;;;;5.23;2.13;;;;;;;-148.15;100.00;61821.78;5048413;28;20036;-88
2024/01/04 10:23:36;;;;;;;7.93;2.92;;;;;;;-148.15;100.00;61821.78;5030736;28;20369;-88
2024/01/04 10:26:08;;;;;;;5.77;2.30;;;;;;;-148.15;100.00;61821.78;5044625;28;20385;-88
2024/01/04 10:28:35;;;;;;;4.88;2.25;;;;;;;-148.15;100.00;61821.78;5027950;28;20025;-87
2024/01/04 10:31:03;;;;;;;7.00;2.40;;;;;;;-148.15;100.00;61821.78;5039604;28;20029;-88
2024/01/04 10:33:29;;;;;;;4.82;2.40;;;;;;;-148.15;100.00;61821.78;5048709;28;20112;-88
2024/01/04 10:35:54;;;;;;;7.57;2.42;;;;;;;-148.15;100.00;61821.78;5048911;28;20065;-88
2024/01/04 10:38:22;;;;;;;6.80;2.70;;;;;;;-148.15;100.00;61821.78;5048505;28;20115;-88
2024/01/04 10:40:59;;;;;;;4.97;2.23;;;;;;;-148.15;100.00;61821.78;5045720;28;20494;-87
2024/01/04 10:43:24;;;;;;;4.07;2.20;;;;;;;-148.15;100.00;61821.78;5029453;28;20144;-88
2024/01/04 10:45:50;;;;;;;9.13;2.70;;;;;;;-148.15;100.00;61821.78;5032348;28;20033;-87
2024/01/04 10:48:15;;;;;;;6.53;2.60;;;;;;;-148.15;100.00;61821.78;5039685;28;20365;-88
2024/01/04 10:50:40;;;;;;;6.13;2.27;;;;;;;-148.15;100.00;61821.78;5047326;28;20819;-87
2024/01/04 10:53:09;;;;;;;3.93;2.03;;;;;;;-148.15;100.00;61821.78;5051784;28;20055;-89
2024/01/04 10:55:36;;;;;;;3.35;2.13;;;;;;;-148.15;100.00;61821.78;5048870;28;20032;-88
2024/01/04 10:58:04;;;;;;;5.82;2.00;;;;;;;-148.15;100.00;61821.78;5047653;28;20029;-89